Time;durP1;ratioP1;P1;durP2;ratioP2;P2;SDS_P1;SDS_P2;PMS_P1;PMS_P2;Temp;Humidity;BMP_temperature;BMP_pressure;BME280_temperature;BME280_humidity;BME280_pressure;Samples;Min_cycle;Max_cycle;Signal;HPM_P1;HPM_P2
2023/09/03 00:01:18;;;;;;;4.30;2.60;;;;;;;14.17;100.00;102716.81;6007569;23;20160;-77
2023/09/03 00:03:43;;;;;;;3.80;2.30;;;;;;;14.51;100.00;102750.72;6008257;23;20623;-76
2023/09/03 00:06:09;;;;;;;5.40;2.77;;;;;;;14.36;100.00;102719.09;6009472;23;20240;-77
2023/09/03 00:08:34;;;;;;;3.63;2.10;;;;;;;14.02;100.00;102669.00;6006444;23;20180;-76
2023/09/03 00:11:00;;;;;;;6.03;2.77;;;;;;;14.02;100.00;102705.94;6009341;23;20160;-77
2023/09/03 00:13:25;;;;;;;4.80;2.90;;;;;;;13.99;100.00;102684.72;6009499;23;20617;-78
2023/09/03 00:15:51;;;;;;;4.77;2.60;;;;;;;13.40;100.00;102563.81;6031924;23;20168;-76
2023/09/03 00:18:16;;;;;;;5.43;2.60;;;;;;;13.82;100.00;102648.03;6007961;23;20176;-76
2023/09/03 00:20:54;;;;;;;5.30;2.73;;;;;;;13.40;100.00;102566.50;6010131;23;20157;-76
2023/09/03 00:23:20;;;;;;;4.37;2.07;;;;;;;13.36;100.00;102580.50;6032392;23;20199;-78
2023/09/03 00:25:45;;;;;;;4.80;2.40;;;;;;;14.24;100.00;102734.00;6009550;23;20473;-77
2023/09/03 00:28:11;;;;;;;4.10;2.73;;;;;;;13.38;100.00;102570.41;6009725;23;20196;-77
2023/09/03 00:30:36;;;;;;;3.87;2.43;;;;;;;14.30;100.00;102741.41;6032160;23;20165;-76
2023/09/03 00:33:02;;;;;;;4.20;2.70;;;;;;;12.21;100.00;102484.66;6008628;23;20267;-76
2023/09/03 00:35:28;;;;;;;5.10;2.87;;;;;;;13.36;100.00;102635.25;6008290;23;20783;-77
2023/09/03 00:37:53;;;;;;;4.83;2.70;;;;;;;12.60;100.00;102461.56;6009596;23;20180;-77
2023/09/03 00:40:19;;;;;;;4.57;2.70;;;;;;;12.93;100.00;102547.63;6009912;23;20560;-78
2023/09/03 00:42:44;;;;;;;5.60;2.73;;;;;;;13.63;100.00;102638.53;6007876;23;20160;-77
2023/09/03 00:45:10;;;;;;;6.27;3.40;;;;;;;13.90;100.00;102762.13;6008366;23;20168;-77
2023/09/03 00:47:35;;;;;;;4.20;2.83;;;;;;;12.54;100.00;102494.53;6007867;23;20160;-77
2023/09/03 00:50:03;;;;;;;5.10;2.77;;;;;;;13.92;100.00;102706.16;6031100;23;20191;-77
2023/09/03 00:52:30;;;;;;;5.60;3.00;;;;;;;12.91;100.00;102520.03;6031002;23;20199;-77
2023/09/03 00:54:57;;;;;;;4.80;2.60;;;;;;;14.30;100.00;102778.34;6007987;23;20433;-77
2023/09/03 00:57:23;;;;;;;4.37;2.60;;;;;;;13.41;100.00;102672.47;6009299;23;20378;-77
2023/09/03 00:59:52;;;;;;;4.43;2.40;;;;;;;12.93;100.00;102591.56;6007939;23;20393;-78
2023/09/03 01:02:19;;;;;;;5.00;3.50;;;;;;;14.34;100.00;102782.38;6009450;23;20386;-77
2023/09/03 01:04:45;;;;;;;4.20;2.53;;;;;;;13.75;100.00;102742.31;6031642;23;20386;-77
2023/09/03 01:07:13;;;;;;;5.67;2.90;;;;;;;13.57;100.00;102648.16;6007822;23;20491;-77
2023/09/03 01:09:40;;;;;;;6.37;3.70;;;;;;;12.16;100.00;102443.16;6030304;23;20409;-77
2023/09/03 01:12:34;;;;;;;8.50;3.80;;;;;;;11.17;100.00;102334.78;6030327;23;20395;-77
2023/09/03 01:15:08;;;;;;;7.13;3.00;;;;;;;11.58;100.00;102323.19;6007328;23;20425;-76
2023/09/03 01:17:58;;;;;;;6.20;3.40;;;;;;;12.77;100.00;102502.72;6030979;23;20380;-76
2023/09/03 01:20:42;;;;;;;4.87;3.10;;;;;;;12.84;100.00;102495.63;6008341;23;20385;-76
2023/09/03 01:23:22;;;;;;;8.67;3.63;;;;;;;14.56;100.00;102742.97;6007982;23;20384;-77
2023/09/03 01:26:08;;;;;;;3.73;2.43;;;;;;;14.02;100.00;102746.41;6008019;23;20377;-77
2023/09/03 01:28:39;;;;;;;5.07;2.50;;;;;;;13.70;100.00;102669.16;6007401;23;20420;-77
2023/09/03 01:31:11;;;;;;;5.63;2.50;;;;;;;13.26;100.00;102549.22;6007982;23;20377;-76
2023/09/03 01:33:41;;;;;;;4.60;2.40;;;;;;;13.44;100.00;102585.88;6031111;23;20425;-77
2023/09/03 01:36:09;;;;;;;4.27;2.47;;;;;;;12.53;100.00;102409.44;6009375;23;20374;-76
2023/09/03 01:38:39;;;;;;;3.37;1.97;;;;;;;13.61;100.00;102608.22;6006503;23;20468;-77
2023/09/03 01:41:06;;;;;;;4.50;2.63;;;;;;;13.88;100.00;102652.72;6031060;23;20421;-77
2023/09/03 01:43:32;;;;;;;5.33;2.77;;;;;;;11.29;100.00;102233.22;6031570;23;20393;-77
2023/09/03 01:46:12;;;;;;;3.93;2.37;;;;;;;14.34;100.00;102713.00;6009026;23;20391;-77
2023/09/03 01:49:23;;;;;;;4.47;2.60;;;;;;;14.11;100.00;102722.94;6030599;23;20639;-77
2023/09/03 01:52:22;;;;;;;7.13;3.40;;;;;;;14.41;100.00;102716.69;6006659;23;20404;-77
2023/09/03 01:54:51;;;;;;;7.70;2.20;;;;;;;13.53;100.00;102564.06;6007846;23;20750;-77
2023/09/03 01:57:28;;;;;;;4.30;2.33;;;;;;;13.58;100.00;102595.91;6030967;23;20389;-76
2023/09/03 01:59:56;;;;;;;5.03;2.47;;;;;;;13.34;100.00;102591.47;6008014;23;20405;-76
2023/09/03 02:02:24;;;;;;;4.93;2.80;;;;;;;14.08;100.00;102713.31;6008848;23;20389;-77
2023/09/03 02:04:50;;;;;;;5.13;2.90;;;;;;;13.26;100.00;102596.88;6029755;23;20701;-77
2023/09/03 02:07:16;;;;;;;4.97;2.67;;;;;;;13.43;100.00;102576.13;6006611;23;20917;-76
2023/09/03 02:09:42;;;;;;;5.83;2.50;;;;;;;13.62;100.00;102605.31;6008146;23;20405;-76
2023/09/03 02:12:08;;;;;;;5.70;2.70;;;;;;;13.45;100.00;102618.06;6030405;23;20239;-78
2023/09/03 02:14:34;;;;;;;3.70;2.13;;;;;;;13.57;100.00;102627.44;6007358;23;20211;-76
2023/09/03 02:16:59;;;;;;;3.77;2.00;;;;;;;14.02;100.00;102717.56;6030218;23;21110;-76
2023/09/03 02:19:25;;;;;;;5.07;2.40;;;;;;;13.85;100.00;102688.97;6008278;23;20564;-76
2023/09/03 02:21:50;;;;;;;3.63;2.30;;;;;;;14.12;100.00;102736.25;6007320;23;20168;-77
2023/09/03 02:24:16;;;;;;;2.97;1.70;;;;;;;13.25;100.00;102605.94;6006509;23;20156;-76
2023/09/03 02:26:43;;;;;;;4.00;2.50;;;;;;;12.91;100.00;102545.09;6030460;23;20160;-76
2023/09/03 02:29:09;;;;;;;4.13;2.47;;;;;;;13.33;100.00;102617.56;6006405;23;20193;-77
2023/09/03 02:31:35;;;;;;;3.90;2.40;;;;;;;13.86;100.00;102716.81;6029558;23;20393;-77
2023/09/03 02:34:02;;;;;;;4.80;2.33;;;;;;;14.12;100.00;102757.84;6007680;23;20176;-81
2023/09/03 02:36:28;;;;;;;4.27;2.17;;;;;;;13.99;100.00;102747.59;6007939;23;20452;-77
2023/09/03 02:39:04;;;;;;;4.37;2.30;;;;;;;13.10;100.00;102619.28;6005978;23;20458;-76
2023/09/03 02:41:30;;;;;;;4.90;2.37;;;;;;;13.82;100.00;102719.00;6006532;23;20152;-77
2023/09/03 02:43:57;;;;;;;3.60;2.60;;;;;;;13.46;100.00;102643.16;6029306;23;20408;-76
2023/09/03 02:46:23;;;;;;;4.13;2.33;;;;;;;13.93;100.00;102733.97;6006021;23;20243;-76
2023/09/03 02:48:48;;;;;;;5.43;2.10;;;;;;;12.93;100.00;102571.84;6006252;23;20440;-77
2023/09/03 02:51:14;;;;;;;3.90;2.40;;;;;;;13.13;100.00;102621.63;6030184;23;20172;-76
2023/09/03 02:53:41;;;;;;;4.50;2.27;;;;;;;13.65;100.00;102726.31;6004150;23;20604;-78
2023/09/03 02:56:06;;;;;;;3.90;2.23;;;;;;;13.02;100.00;102625.56;6006965;23;20750;-77
2023/09/03 02:58:31;;;;;;;4.20;2.43;;;;;;;13.64;100.00;102713.84;6008031;23;20397;-77
2023/09/03 03:01:09;;;;;;;4.63;2.50;;;;;;;12.95;100.00;102627.22;6007742;23;20157;-76
2023/09/03 03:03:34;;;;;;;4.63;2.70;;;;;;;13.66;100.00;102737.97;6008362;23;20737;-77
2023/09/03 03:06:00;;;;;;;6.63;2.77;;;;;;;13.79;100.00;102725.59;6006781;23;20401;-77
2023/09/03 03:08:26;;;;;;;4.90;2.90;;;;;;;13.28;100.00;102638.81;6028805;23;20631;-76
2023/09/03 03:10:51;;;;;;;6.93;2.53;;;;;;;13.85;100.00;102726.75;6008240;23;20156;-77
2023/09/03 03:13:17;;;;;;;5.10;2.83;;;;;;;14.02;100.00;102808.47;6007589;23;20172;-76
2023/09/03 03:15:42;;;;;;;5.37;3.53;;;;;;;14.05;100.00;102812.69;6007171;23;20164;-76
2023/09/03 03:18:08;;;;;;;4.33;3.03;;;;;;;13.99;100.00;102777.28;6005799;23;20186;-77
2023/09/03 03:20:34;;;;;;;4.87;3.10;;;;;;;13.99;100.00;102815.03;6006711;23;20173;-77
2023/09/03 03:22:59;;;;;;;3.93;2.77;;;;;;;13.87;100.00;102759.78;6008144;23;20761;-77
2023/09/03 03:25:25;;;;;;;4.77;3.10;;;;;;;14.08;100.00;102775.38;6008273;23;20180;-76
2023/09/03 03:27:50;;;;;;;8.90;3.93;;;;;;;13.30;100.00;102669.13;6007540;23;20164;-78
2023/09/03 03:30:16;;;;;;;5.00;3.73;;;;;;;13.15;100.00;102680.75;6030427;23;20246;-77
2023/09/03 03:32:41;;;;;;;5.40;3.87;;;;;;;13.86;100.00;102803.97;6005936;23;20505;-78
2023/09/03 03:35:07;;;;;;;5.47;3.70;;;;;;;13.52;100.00;102742.19;6007927;23;20212;-76
2023/09/03 03:37:33;;;;;;;4.57;3.10;;;;;;;13.01;100.00;102649.94;6029677;23;20183;-76
2023/09/03 03:39:58;;;;;;;5.77;3.70;;;;;;;13.37;100.00;102722.34;6029355;23;20271;-77
2023/09/03 03:42:24;;;;;;;4.93;4.00;;;;;;;13.49;100.00;102735.28;6029839;23;20553;-76
2023/09/03 03:44:49;;;;;;;7.50;4.07;;;;;;;13.42;100.00;102734.28;6007777;23;20152;-76
2023/09/03 03:47:15;;;;;;;5.43;3.20;;;;;;;12.83;100.00;102645.59;6005748;23;20593;-76
2023/09/03 03:49:40;;;;;;;5.00;3.50;;;;;;;13.73;100.00;102801.78;6028728;23;20319;-77
2023/09/03 03:52:06;;;;;;;4.83;3.60;;;;;;;13.16;100.00;102706.66;6008075;23;20223;-77
2023/09/03 03:54:32;;;;;;;4.80;3.60;;;;;;;12.86;100.00;102639.88;6006154;23;20184;-76
2023/09/03 03:56:57;;;;;;;6.53;3.80;;;;;;;14.30;100.00;102837.72;6006313;23;20172;-77
2023/09/03 03:59:23;;;;;;;4.63;3.60;;;;;;;14.14;100.00;102831.34;6005841;23;20417;-76
2023/09/03 04:01:48;;;;;;;5.10;3.63;;;;;;;14.01;100.00;102818.41;6006250;23;20528;-75
2023/09/03 04:04:14;;;;;;;4.10;3.30;;;;;;;14.16;100.00;102860.88;6005149;23;20157;-77
2023/09/03 04:06:39;;;;;;;6.13;3.60;;;;;;;14.33;100.00;102891.38;6007873;23;20175;-76
2023/09/03 04:09:05;;;;;;;7.23;4.03;;;;;;;13.73;100.00;102785.63;6029070;23;20177;-76
2023/09/03 04:11:30;;;;;;;6.90;4.50;;;;;;;13.66;100.00;102744.19;6008230;23;20201;-77
2023/09/03 04:13:56;;;;;;;6.90;4.30;;;;;;;14.59;100.00;102897.38;6029576;23;20324;-77
2023/09/03 04:16:24;;;;;;;5.00;3.90;;;;;;;14.60;100.00;102899.03;6008310;23;20165;-76
2023/09/03 04:18:50;;;;;;;5.57;3.90;;;;;;;14.13;100.00;102831.53;6029652;23;20202;-76
2023/09/03 04:21:16;;;;;;;5.43;4.00;;;;;;;13.42;100.00;102690.31;6006823;23;20385;-76
2023/09/03 04:23:41;;;;;;;5.87;3.87;;;;;;;14.46;100.00;102889.81;6008249;23;20239;-76
2023/09/03 04:26:09;;;;;;;5.77;4.77;;;;;;;13.13;100.00;102702.47;6006552;23;20480;-76
2023/09/03 04:28:34;;;;;;;8.50;4.03;;;;;;;14.48;100.00;102913.91;6006404;23;20195;-75
2023/09/03 04:31:04;;;;;;;5.03;3.60;;;;;;;14.56;100.00;102924.72;6006187;23;20864;-77
2023/09/03 04:33:29;;;;;;;5.90;4.00;;;;;;;14.47;100.00;102920.34;6005680;23;20186;-77
2023/09/03 04:35:57;;;;;;;5.80;3.70;;;;;;;14.59;100.00;102958.66;6006960;23;20464;-75
2023/09/03 04:38:23;;;;;;;7.87;4.03;;;;;;;13.69;100.00;102827.44;6004709;23;20180;-76
2023/09/03 04:40:49;;;;;;;4.57;3.50;;;;;;;14.37;100.00;102935.88;6006676;23;20426;-76
2023/09/03 04:43:14;;;;;;;6.23;4.40;;;;;;;13.64;100.00;102845.13;6031171;23;20157;-77
2023/09/03 04:45:52;;;;;;;5.00;3.90;;;;;;;13.74;100.00;102854.75;6008411;23;20180;-76
2023/09/03 04:48:19;;;;;;;5.73;4.10;;;;;;;14.56;100.00;102961.69;6030432;23;20223;-77
2023/09/03 04:50:45;;;;;;;5.13;3.90;;;;;;;14.45;100.00;102938.56;6030035;23;20492;-76
2023/09/03 04:53:13;;;;;;;6.00;3.73;;;;;;;13.76;100.00;102827.59;6008646;23;20405;-76
2023/09/03 04:55:40;;;;;;;6.07;4.20;;;;;;;14.20;100.00;102953.97;6010627;23;20385;-76
2023/09/03 04:58:06;;;;;;;4.80;3.70;;;;;;;13.45;100.00;102838.22;6012057;23;20561;-76
2023/09/03 05:00:32;;;;;;;8.20;4.03;;;;;;;14.30;100.00;102968.13;6010191;23;20413;-77
2023/09/03 05:02:58;;;;;;;5.70;3.60;;;;;;;14.48;100.00;102966.06;6044169;23;20167;-75
2023/09/03 05:05:24;;;;;;;4.77;3.30;;;;;;;14.15;100.00;102959.91;6029442;23;20397;-76
2023/09/03 05:07:51;;;;;;;6.20;3.80;;;;;;;14.34;100.00;102992.94;6007337;23;20236;-76
2023/09/03 05:10:17;;;;;;;4.90;3.30;;;;;;;14.32;100.00;102994.94;6030192;23;20167;-75
2023/09/03 05:12:43;;;;;;;5.03;3.63;;;;;;;13.73;100.00;102884.56;6008491;23;20385;-76
2023/09/03 05:15:10;;;;;;;5.40;3.90;;;;;;;13.90;100.00;102888.09;6008589;23;20191;-76
2023/09/03 05:17:36;;;;;;;7.03;3.37;;;;;;;14.47;100.00;102990.56;6008296;23;20412;-76
2023/09/03 05:20:02;;;;;;;4.90;3.30;;;;;;;14.50;100.00;102986.66;6005449;23;20421;-75
2023/09/03 05:22:28;;;;;;;4.70;3.50;;;;;;;14.42;100.00;102980.25;6029678;23;20608;-76
2023/09/03 05:24:53;;;;;;;4.70;3.20;;;;;;;14.16;100.00;102913.00;6029500;23;20449;-76
2023/09/03 05:27:19;;;;;;;4.77;3.07;;;;;;;14.28;100.00;102912.63;6007436;23;20204;-75
2023/09/03 05:29:44;;;;;;;6.00;3.37;;;;;;;13.97;100.00;102879.16;6008382;23;20180;-75
2023/09/03 05:32:10;;;;;;;4.67;3.50;;;;;;;14.20;100.00;102889.19;6008786;23;20486;-76
2023/09/03 05:34:35;;;;;;;4.37;3.40;;;;;;;14.25;100.00;102925.44;6031127;23;20256;-76
2023/09/03 05:37:03;;;;;;;5.30;3.50;;;;;;;14.08;100.00;102866.28;6006673;23;20849;-76
2023/09/03 05:39:28;;;;;;;5.00;2.90;;;;;;;14.74;100.00;102991.19;6029715;23;20421;-76
2023/09/03 05:41:54;;;;;;;4.80;3.50;;;;;;;14.85;100.00;103021.38;6008227;23;20385;-75
2023/09/03 05:44:19;;;;;;;9.00;3.90;;;;;;;14.22;100.00;102919.56;6007633;23;20157;-76
2023/09/03 05:46:45;;;;;;;6.93;4.00;;;;;;;14.35;100.00;102937.91;6008502;23;20153;-75
2023/09/03 05:49:10;;;;;;;4.57;2.73;;;;;;;14.38;100.00;102930.34;6006381;23;20179;-75
2023/09/03 05:51:36;;;;;;;4.43;3.40;;;;;;;15.10;100.00;103032.94;6006523;23;20178;-76
2023/09/03 05:54:02;;;;;;;4.23;3.30;;;;;;;14.81;100.00;103000.25;6029965;23;20185;-75
2023/09/03 05:56:28;;;;;;;3.80;2.77;;;;;;;15.02;100.00;103024.84;6008721;23;20836;-78
2023/09/03 05:58:53;;;;;;;4.50;2.70;;;;;;;14.96;100.00;103012.03;6006963;23;20487;-76
2023/09/03 06:01:19;;;;;;;4.03;3.03;;;;;;;14.59;100.00;102948.69;6007995;23;20173;-75
2023/09/03 06:03:44;;;;;;;6.10;3.20;;;;;;;15.13;100.00;103027.19;6030064;23;20212;-76
2023/09/03 06:06:11;;;;;;;3.97;3.20;;;;;;;14.27;100.00;102884.81;6030099;23;20195;-75
2023/09/03 06:08:38;;;;;;;5.30;2.90;;;;;;;15.23;100.00;103045.03;6029526;23;20180;-75
2023/09/03 06:11:05;;;;;;;4.30;2.77;;;;;;;14.66;100.00;102944.25;6028885;23;20472;-76
2023/09/03 06:13:32;;;;;;;4.70;3.27;;;;;;;15.25;100.00;103018.69;6006370;23;20425;-75
2023/09/03 06:15:58;;;;;;;3.87;2.47;;;;;;;15.38;100.00;103033.28;6007273;23;20397;-75
2023/09/03 06:18:24;;;;;;;4.03;2.20;;;;;;;15.26;100.00;103007.66;6030520;23;20453;-75
2023/09/03 06:20:50;;;;;;;4.63;3.10;;;;;;;14.82;100.00;102929.03;6030305;23;20223;-75
2023/09/03 06:23:18;;;;;;;5.00;2.90;;;;;;;15.53;100.00;103037.94;6030212;23;20417;-76
2023/09/03 06:25:47;;;;;;;3.60;2.80;;;;;;;15.61;100.00;103021.66;6030627;23;20940;-76
2023/09/03 06:28:12;;;;;;;6.33;3.43;;;;;;;15.31;100.00;102983.66;6029421;23;20409;-76
2023/09/03 06:30:38;;;;;;;6.13;3.70;;;;;;;14.98;100.00;102953.25;6008179;23;20383;-76
2023/09/03 06:33:04;;;;;;;3.87;2.53;;;;;;;14.90;100.00;102908.22;6007958;23;20152;-75
2023/09/03 06:35:30;;;;;;;4.73;3.40;;;;;;;15.71;100.00;103040.41;6006071;23;20164;-76
2023/09/03 06:37:56;;;;;;;6.93;3.50;;;;;;;15.42;100.00;102997.78;6007413;23;20433;-76
2023/09/03 06:40:22;;;;;;;4.50;2.60;;;;;;;15.02;100.00;102924.84;6005841;23;20399;-76
2023/09/03 06:42:48;;;;;;;3.80;2.30;;;;;;;15.40;100.00;102970.09;6008523;23;20152;-76
2023/09/03 06:45:13;;;;;;;3.73;2.27;;;;;;;15.18;100.00;102929.31;6007097;23;20388;-77
2023/09/03 06:47:39;;;;;;;4.53;2.30;;;;;;;15.19;100.00;102947.22;6008629;23;20157;-76
2023/09/03 06:50:08;;;;;;;4.70;2.40;;;;;;;15.12;100.00;102935.44;6028946;23;20187;-77
2023/09/03 06:52:36;;;;;;;3.53;2.10;;;;;;;15.81;100.00;103041.84;6009083;23;20196;-75
2023/09/03 06:55:02;;;;;;;5.63;2.63;;;;;;;14.85;100.00;102878.16;6008172;23;20461;-76
2023/09/03 06:57:28;;;;;;;5.10;2.20;;;;;;;15.85;100.00;103019.84;6008872;23;20410;-75
2023/09/03 06:59:54;;;;;;;3.97;1.93;;;;;;;15.33;100.00;102934.78;6008555;23;20397;-76
2023/09/03 07:02:20;;;;;;;5.93;2.33;;;;;;;15.60;100.00;102966.72;6031063;23;20444;-76
2023/09/03 07:04:46;;;;;;;4.00;2.27;;;;;;;16.20;100.00;103050.84;6030629;23;20393;-75
2023/09/03 07:07:11;;;;;;;7.07;2.47;;;;;;;15.84;100.00;102988.41;6008860;23;20157;-76
2023/09/03 07:09:36;;;;;;;4.80;2.30;;;;;;;16.36;100.00;103044.44;6008566;23;20192;-76
2023/09/03 07:12:02;;;;;;;3.80;2.13;;;;;;;16.09;100.00;103016.94;6007798;23;20156;-75
2023/09/03 07:14:35;;;;;;;5.80;2.40;;;;;;;15.25;100.00;102887.03;6008610;23;20180;-75
2023/09/03 07:17:01;;;;;;;3.17;1.87;;;;;;;16.20;100.00;103021.06;6007275;23;20470;-75
2023/09/03 07:19:28;;;;;;;4.00;1.97;;;;;;;16.43;100.00;103027.28;6007338;23;20457;-76
2023/09/03 07:21:53;;;;;;;3.57;2.40;;;;;;;16.53;100.00;103018.88;6005595;23;20397;-76
2023/09/03 07:24:22;;;;;;;3.50;1.80;;;;;;;16.66;100.00;103018.22;6029645;23;20387;-75
2023/09/03 07:26:48;;;;;;;2.77;1.63;;;;;;;16.72;100.00;103009.34;6006021;23;20168;-75
2023/09/03 07:29:13;;;;;;;5.50;2.50;;;;;;;16.60;100.00;103005.44;6028574;23;20947;-75
2023/09/03 07:31:43;;;;;;;5.03;1.70;;;;;;;16.50;100.00;102949.66;6007380;23;20152;-77
2023/09/03 07:34:14;;;;;;;3.40;1.77;;;;;;;16.69;100.00;102961.81;6028588;23;20783;-75
2023/09/03 07:36:40;;;;;;;4.53;2.03;;;;;;;16.13;100.00;102854.97;6007444;23;20400;-76
2023/09/03 07:39:08;;;;;;;4.20;1.73;;;;;;;16.27;100.00;102883.91;6004374;23;21129;-75
2023/09/03 07:41:34;;;;;;;4.40;1.90;;;;;;;16.76;100.00;102945.66;6005905;23;20164;-76
2023/09/03 07:43:59;;;;;;;3.10;1.37;;;;;;;16.98;100.00;102983.66;6029563;23;20445;-75
2023/09/03 07:46:28;;;;;;;5.63;1.50;;;;;;;16.58;100.00;102905.41;6007836;23;20161;-76
2023/09/03 07:48:54;;;;;;;3.53;1.73;;;;;;;16.79;100.00;102903.81;6007437;23;20176;-76
2023/09/03 07:51:20;;;;;;;3.30;1.80;;;;;;;17.20;100.00;102961.00;6004805;23;20409;-76
2023/09/03 07:53:47;;;;;;;3.90;1.80;;;;;;;17.07;100.00;102941.88;6030017;23;20183;-76
2023/09/03 07:56:13;;;;;;;4.27;2.20;;;;;;;17.09;100.00;102950.66;6027987;23;20397;-76
2023/09/03 07:58:39;;;;;;;3.87;2.30;;;;;;;16.38;100.00;102845.53;6004122;23;20402;-76
2023/09/03 08:01:04;;;;;;;3.03;1.70;;;;;;;17.10;100.00;102950.47;6006824;23;20381;-75
2023/09/03 08:03:33;;;;;;;4.00;2.10;;;;;;;17.34;100.00;102970.97;6007768;23;20231;-78
2023/09/03 08:05:59;;;;;;;7.13;2.47;;;;;;;16.60;100.00;102846.41;6006882;23;20547;-76
2023/09/03 08:08:26;;;;;;;3.43;1.87;;;;;;;17.29;100.00;102937.31;6029700;23;20544;-76
2023/09/03 08:10:51;;;;;;;5.60;2.83;;;;;;;16.54;100.00;102849.06;6029289;23;20413;-76
2023/09/03 08:13:16;;;;;;;5.60;3.20;;;;;;;16.59;100.00;102838.50;6029018;23;20429;-75
2023/09/03 08:15:42;;;;;;;5.10;2.40;;;;;;;16.55;100.00;102813.66;6029645;23;20224;-76
2023/09/03 08:18:07;;;;;;;5.57;2.67;;;;;;;16.37;100.00;102807.78;6031343;23;20456;-76
2023/09/03 08:20:33;;;;;;;3.00;1.70;;;;;;;16.56;100.00;102839.72;6009140;23;20161;-76
2023/09/03 08:22:58;;;;;;;4.60;2.80;;;;;;;16.93;100.00;102906.47;6030224;23;20161;-76
2023/09/03 08:25:24;;;;;;;5.23;2.80;;;;;;;16.90;100.00;102914.16;6007221;23;20168;-76
2023/09/03 08:27:49;;;;;;;3.63;1.80;;;;;;;17.02;100.00;102930.75;6008109;23;20156;-76
2023/09/03 08:30:15;;;;;;;4.43;1.70;;;;;;;15.97;100.00;102734.22;6030732;23;20156;-77
2023/09/03 08:32:40;;;;;;;3.83;2.07;;;;;;;17.45;100.00;102960.66;6009309;23;20181;-77
2023/09/03 08:35:06;;;;;;;3.13;1.60;;;;;;;17.10;100.00;102876.44;6007188;23;20188;-76
2023/09/03 08:37:32;;;;;;;6.10;2.00;;;;;;;16.64;100.00;102808.97;6006978;23;20608;-76
2023/09/03 08:39:57;;;;;;;6.80;2.07;;;;;;;17.53;100.00;102947.81;6030711;23;20420;-76
2023/09/03 08:42:23;;;;;;;3.07;1.50;;;;;;;16.77;100.00;102808.28;6006596;23;20232;-77
2023/09/03 08:44:54;;;;;;;3.70;1.70;;;;;;;17.18;100.00;102889.84;6008709;23;20159;-76
2023/09/03 08:47:20;;;;;;;3.70;2.00;;;;;;;16.59;100.00;102787.84;6031156;23;20385;-76
2023/09/03 08:49:46;;;;;;;3.00;1.50;;;;;;;16.86;100.00;102807.13;6007529;23;20956;-76
2023/09/03 08:52:13;;;;;;;3.70;1.83;;;;;;;17.19;100.00;102861.69;6007988;23;20168;-77
2023/09/03 08:54:39;;;;;;;4.87;2.30;;;;;;;16.64;100.00;102790.00;6007341;23;20515;-76
2023/09/03 08:57:05;;;;;;;2.70;1.20;;;;;;;17.39;100.00;102900.69;6006282;23;20389;-77
2023/09/03 09:00:14;;;;;;;3.00;1.50;;;;;;;17.70;100.00;102918.50;6028619;23;20619;-76
2023/09/03 09:02:42;;;;;;;3.07;1.40;;;;;;;17.57;100.00;102897.53;6007642;23;20377;-77
2023/09/03 09:05:09;;;;;;;3.57;1.53;;;;;;;17.02;100.00;102830.47;6030974;23;20382;-78
2023/09/03 09:07:35;;;;;;;3.17;1.57;;;;;;;16.84;100.00;102774.00;6006717;23;20457;-77
2023/09/03 09:10:09;;;;;;;4.10;1.80;;;;;;;17.79;100.00;102940.94;6031825;23;20413;-77
2023/09/03 09:12:50;;;;;;;3.30;1.30;;;;;;;17.24;100.00;102823.13;6008971;23;20227;-77
2023/09/03 09:15:15;;;;;;;4.27;1.90;;;;;;;17.78;100.00;102912.97;6005410;23;20436;-77
2023/09/03 09:17:42;;;;;;;4.07;1.70;;;;;;;18.14;100.00;102932.84;6007279;23;20607;-77
2023/09/03 09:20:09;;;;;;;6.00;2.10;;;;;;;17.46;100.00;102804.97;6030397;23;20259;-76
2023/09/03 09:22:49;;;;;;;3.00;1.40;;;;;;;17.31;100.00;102770.63;6009511;23;20395;-76
2023/09/03 09:25:18;;;;;;;3.33;1.80;;;;;;;18.22;100.00;102900.13;6009774;23;20381;-78
2023/09/03 09:27:44;;;;;;;3.47;1.50;;;;;;;18.13;100.00;102888.56;6008414;23;20386;-76
2023/09/03 09:30:12;;;;;;;3.00;1.10;;;;;;;18.12;100.00;102850.75;6007679;23;20415;-77
2023/09/03 09:32:40;;;;;;;4.20;1.30;;;;;;;18.21;100.00;102849.56;6029732;23;20164;-77
2023/09/03 09:35:06;;;;;;;3.60;1.23;;;;;;;17.66;100.00;102757.09;6028543;23;20436;-77
2023/09/03 09:37:39;;;;;;;3.00;1.40;;;;;;;18.09;100.00;102853.88;6003537;23;20865;-77
2023/09/03 09:40:06;;;;;;;3.37;1.40;;;;;;;18.24;100.00;102866.28;6004817;23;20397;-76
2023/09/03 09:42:32;;;;;;;4.10;1.67;;;;;;;18.01;100.00;102811.44;6030562;23;20837;-76
2023/09/03 09:44:59;;;;;;;3.77;1.57;;;;;;;18.01;100.00;102776.97;6030358;23;20393;-77
2023/09/03 09:47:25;;;;;;;4.83;1.60;;;;;;;17.84;100.00;102752.00;6030962;23;20546;-78
2023/09/03 09:49:51;;;;;;;4.13;1.37;;;;;;;18.62;100.00;102854.97;6005886;23;20417;-78
2023/09/03 09:52:18;;;;;;;4.07;1.50;;;;;;;18.00;100.00;102740.00;6007676;23;20488;-77
2023/09/03 09:54:46;;;;;;;5.07;1.83;;;;;;;18.25;100.00;102758.47;6005734;23;20181;-76
2023/09/03 09:57:21;;;;;;;3.80;1.47;;;;;;;18.33;100.00;102750.13;6004835;23;20432;-76
2023/09/03 10:00:00;;;;;;;2.83;1.17;;;;;;;18.73;100.00;102793.72;6004767;23;20500;-77
2023/09/03 10:02:26;;;;;;;4.57;1.60;;;;;;;18.54;100.00;102732.84;6028081;23;20385;-76
2023/09/03 10:04:53;;;;;;;5.33;1.50;;;;;;;18.50;100.00;102723.44;6030428;23;20397;-78
2023/09/03 10:07:19;;;;;;;4.87;2.07;;;;;;;18.69;100.00;102747.09;6003924;23;20592;-77
2023/09/03 10:10:12;;;;;;;3.53;1.50;;;;;;;19.01;100.00;102771.03;6027807;23;20951;-77
2023/09/03 10:13:15;;;;;;;3.73;1.40;;;;;;;18.93;100.00;102756.56;5996380;23;20164;-76
2023/09/03 10:15:41;;;;;;;2.97;1.13;;;;;;;18.79;100.00;102719.53;6007093;23;20396;-77
2023/09/03 10:18:08;;;;;;;2.90;1.60;;;;;;;19.20;100.00;102715.75;6029478;23;20733;-76
2023/09/03 10:20:35;;;;;;;3.50;1.80;;;;;;;18.74;100.00;102659.50;6009175;23;20396;-77
2023/09/03 10:23:04;;;;;;;2.67;1.50;;;;;;;18.92;100.00;102716.84;6006769;23;20476;-77
2023/09/03 10:25:36;;;;;;;3.17;1.37;;;;;;;18.84;100.00;102708.88;6007531;23;20409;-77
2023/09/03 10:28:05;;;;;;;5.00;2.07;;;;;;;19.08;100.00;102717.44;6007067;23;20476;-77
2023/09/03 10:30:43;;;;;;;3.70;1.53;;;;;;;19.05;100.00;102683.34;6007896;23;20397;-77
2023/09/03 10:33:09;;;;;;;3.83;1.60;;;;;;;18.92;100.00;102618.13;6031696;23;20385;-78
2023/09/03 10:35:35;;;;;;;3.10;1.50;;;;;;;18.86;100.00;102589.91;6031616;23;20535;-76
2023/09/03 10:38:00;;;;;;;3.47;1.73;;;;;;;18.66;100.00;102644.25;6008765;23;20381;-76
2023/09/03 10:40:28;;;;;;;4.50;1.50;;;;;;;18.90;100.00;102645.50;6007594;23;20480;-77
2023/09/03 10:43:18;;;;;;;3.27;1.37;;;;;;;19.19;100.00;102678.75;6008968;23;20148;-77
2023/09/03 10:46:03;;;;;;;3.17;1.37;;;;;;;19.05;100.00;102626.25;6009479;23;20380;-77
2023/09/03 10:48:29;;;;;;;2.90;1.10;;;;;;;19.38;100.00;102657.97;6009304;23;20401;-77
2023/09/03 10:50:54;;;;;;;3.07;1.40;;;;;;;19.30;100.00;102648.16;6007304;23;20476;-77
2023/09/03 10:53:40;;;;;;;3.00;1.30;;;;;;;19.47;100.00;102667.59;6007741;23;20447;-77
2023/09/03 10:56:07;;;;;;;3.90;1.20;;;;;;;19.59;100.00;102660.44;6031407;23;20521;-76
2023/09/03 10:58:32;;;;;;;2.27;1.00;;;;;;;19.42;100.00;102637.47;6009003;23;20876;-77
2023/09/03 11:01:17;;;;;;;2.37;0.90;;;;;;;19.62;100.00;102660.00;6008911;23;20460;-77
2023/09/03 11:03:47;;;;;;;2.60;1.07;;;;;;;19.46;100.00;102635.97;6008877;23;20216;-78
2023/09/03 11:06:24;;;;;;;2.97;1.00;;;;;;;19.52;100.00;102601.63;6007395;23;20453;-78
2023/09/03 11:08:59;;;;;;;3.00;1.30;;;;;;;19.83;100.00;102644.44;6007654;23;20464;-78
2023/09/03 11:11:33;;;;;;;4.13;1.10;;;;;;;19.41;100.00;102581.34;6007664;23;20918;-77
2023/09/03 11:13:59;;;;;;;4.00;1.37;;;;;;;19.53;100.00;102576.09;6009496;23;20409;-77
2023/09/03 11:16:37;;;;;;;3.10;1.27;;;;;;;19.75;100.00;102572.00;6007516;23;20779;-77
2023/09/03 11:19:06;;;;;;;3.07;1.40;;;;;;;19.86;100.00;102614.06;6007367;23;20420;-77
2023/09/03 11:21:32;;;;;;;3.00;1.10;;;;;;;19.97;100.00;102631.59;6007703;23;20436;-76